Time,TemperatureF,DewpointF,PressureIn,WindDirection,WindDirectionDegrees,WindSpeedMPH,WindSpeedGustMPH,Humidity,HourlyPrecipIn,Conditions,Clouds,dailyrainin,SoftwareType,DateUTC
2013-01-04 00:08:00,29.3,5.7,24.50,East,85,1.0,8.0,36,0.00,,OVC,-99.99,VWS V12.07,2013-01-04 08:08:00,
2013-01-04 00:14:00,29.3,4.4,24.50,East,92,2.0,8.0,34,0.00,,OVC,-99.99,VWS V12.07,2013-01-04 08:14:00,
2013-01-04 00:19:00,29.3,4.4,24.50,East,92,1.0,4.0,34,0.00,,OVC,-99.99,VWS V12.07,2013-01-04 08:19:00,
2013-01-04 00:24:00,29.2,5.6,24.50,East,92,1.0,4.0,36,0.00,,OVC,-99.99,VWS V12.07,2013-01-04 08:24:00,
2013-01-04 00:29:00,29.1,6.1,24.50,East,92,2.0,4.0,37,0.00,,OVC,-99.99,VWS V12.07,2013-01-04 08:29:00,
2013-01-04 00:34:00,29.0,6.0,24.50,ESE,113,3.0,4.0,37,0.00,,OVC,-99.99,VWS V12.07,2013-01-04 08:34:00,
2013-01-04 00:40:00,28.8,7.0,24.50,ESE,113,1.0,4.0,39,0.00,,OVC,-99.99,VWS V12.07,2013-01-04 08:40:00,
2013-01-04 00:45:00,28.7,5.7,24.50,ESE,104,2.0,5.0,37,0.00,,OVC,-99.99,VWS V12.07,2013-01-04 08:45:00,
2013-01-04 00:51:00,28.6,6.2,24.50,ESE,104,1.0,3.0,38,0.00,,OVC,-99.99,VWS V12.07,2013-01-04 08:51:00,
2013-01-04 00:56:00,28.5,6.7,24.50,ESE,104,2.0,3.0,39,0.00,,OVC,-99.99,VWS V12.07,2013-01-04 08:56:00,
2013-01-04 01:10:00,28.5,6.1,24.49,ESE,104,4.0,4.0,38,0.00,,OVC,-99.99,VWS V12.07,2013-01-04 09:10:00,
2013-01-04 01:15:00,28.5,6.1,24.49,ESE,104,3.0,3.0,38,0.00,,OVC,-99.99,VWS V12.07,2013-01-04 09:15:00,
2013-01-04 01:21:00,28.5,5.6,24.49,ESE,104,2.0,5.0,37,0.00,,OVC,-99.99,VWS V12.07,2013-01-04 09:21:00,
2013-01-04 01:26:00,28.5,5.6,24.50,ESE,104,2.0,6.0,37,0.00,,OVC,-99.99,VWS V12.07,2013-01-04 09:26:00,
2013-01-04 01:34:00,28.5,5.6,24.49,ESE,104,2.0,4.0,37,0.00,,OVC,-99.99,VWS V12.07,2013-01-04 09:34:00,
2013-01-04 01:40:00,28.5,6.7,24.49,ESE,104,1.0,4.0,39,0.00,,OVC,-99.99,VWS V12.07,2013-01-04 09:40:00,
2013-01-04 01:45:00,28.4,5.5,24.49,ESE,104,3.0,4.0,37,0.00,,OVC,-99.99,VWS V12.07,2013-01-04 09:45:00,
2013-01-04 01:51:00,28.4,4.9,24.50,ESE,104,1.0,4.0,36,0.00,,OVC,-99.99,VWS V12.07,2013-01-04 09:51:00,
2013-01-04 01:56:00,28.4,5.5,24.49,ESE,104,2.0,4.0,37,0.00,,OVC,-99.99,VWS V12.07,2013-01-04 09:56:00,
2013-01-04 02:09:00,28.6,5.0,24.49,East,88,1.0,5.0,36,0.00,,OVC,-99.99,VWS V12.07,2013-01-04 10:09:00,
2013-01-04 02:15:00,28.8,5.2,24.49,East,92,1.0,1.0,36,0.00,,OVC,-99.99,VWS V12.07,2013-01-04 10:15:00,
2013-01-04 02:20:00,28.8,4.6,24.49,East,101,2.0,5.0,35,0.00,,OVC,-99.99,VWS V12.07,2013-01-04 10:20:00,
2013-01-04 02:26:00,28.9,5.3,24.49,East,101,1.0,5.0,36,0.00,,OVC,-99.99,VWS V12.07,2013-01-04 10:26:00,
2013-01-04 02:34:00,28.5,5.0,24.49,East,101,1.0,5.0,36,0.00,,OVC,-99.99,VWS V12.07,2013-01-04 10:34:00,
2013-01-04 02:40:00,28.6,3.8,24.50,East,101,2.0,5.0,34,0.00,,OVC,-99.99,VWS V12.07,2013-01-04 10:40:00,
2013-01-04 02:45:00,28.8,4.6,24.50,East,101,2.0,5.0,35,0.00,,OVC,-99.99,VWS V12.07,2013-01-04 10:45:00,
2013-01-04 02:51:00,28.8,3.3,24.50,East,101,4.0,5.0,33,0.00,,OVC,-99.99,VWS V12.07,2013-01-04 10:51:00,
2013-01-04 02:56:00,29.0,2.8,24.50,ESE,118,1.0,5.0,32,0.00,,OVC,-99.99,VWS V12.07,2013-01-04 10:56:00,
2013-01-04 03:08:00,29.2,5.0,24.50,ENE,73,2.0,6.0,35,0.00,,OVC,-99.99,VWS V12.07,2013-01-04 11:08:00,
2013-01-04 03:14:00,29.0,4.2,24.50,ENE,73,2.0,6.0,34,0.00,,OVC,-99.99,VWS V12.07,2013-01-04 11:14:00,
2013-01-04 03:19:00,28.9,3.4,24.50,ENE,74,1.0,5.0,33,0.00,,OVC,-99.99,VWS V12.07,2013-01-04 11:19:00,
2013-01-04 03:24:00,28.9,3.4,24.50,ENE,78,2.0,6.0,33,0.00,,OVC,-99.99,VWS V12.07,2013-01-04 11:24:00,
2013-01-04 03:29:00,28.9,3.4,24.50,SE,141,4.0,6.0,33,0.00,,OVC,-99.99,VWS V12.07,2013-01-04 11:29:00,
2013-01-04 03:34:00,28.9,3.4,24.49,ENE,65,2.0,4.0,33,0.00,,OVC,-99.99,VWS V12.07,2013-01-04 11:34:00,
2013-01-04 03:40:00,28.9,0.6,24.49,East,92,2.0,5.0,29,0.00,,OVC,-99.99,VWS V12.07,2013-01-04 11:40:00,
2013-01-04 03:45:00,29.2,3.0,24.49,ESE,114,2.0,6.0,32,0.00,,OVC,-99.99,VWS V12.07,2013-01-04 11:45:00,
2013-01-04 03:51:00,29.2,2.3,24.49,ESE,114,1.0,5.0,31,0.00,,OVC,-99.99,VWS V12.07,2013-01-04 11:51:00,
2013-01-04 03:56:00,29.2,3.7,24.49,SSE,149,2.0,5.0,33,0.00,,OVC,-99.99,VWS V12.07,2013-01-04 11:56:00,
2013-01-04 04:09:00,29.3,1.7,24.49,East,97,3.0,7.0,30,0.00,,OVC,-99.99,VWS V12.07,2013-01-04 12:09:00,
2013-01-04 04:14:00,29.4,2.5,24.49,South,179,2.0,7.0,31,0.00,,OVC,-99.99,VWS V12.07,2013-01-04 12:14:00,
2013-01-04 04:19:00,29.4,3.2,24.49,ESE,117,2.0,5.0,32,0.00,,OVC,-99.99,VWS V12.07,2013-01-04 12:19:00,
2013-01-04 04:24:00,29.4,3.2,24.49,East,98,2.0,5.0,32,0.00,,OVC,-99.99,VWS V12.07,2013-01-04 12:24:00,
2013-01-04 04:29:00,29.3,3.8,24.49,SSE,166,1.0,5.0,33,0.00,,OVC,-99.99,VWS V12.07,2013-01-04 12:29:00,
2013-01-04 04:34:00,29.2,3.7,24.49,SE,138,2.0,5.0,33,0.00,,OVC,-99.99,VWS V12.07,2013-01-04 12:34:00,
2013-01-04 04:40:00,29.0,2.8,24.48,East,95,3.0,5.0,32,0.00,,OVC,-99.99,VWS V12.07,2013-01-04 12:40:00,
2013-01-04 04:45:00,29.0,3.5,24.49,ENE,75,2.0,2.0,33,0.00,,OVC,-99.99,VWS V12.07,2013-01-04 12:45:00,
2013-01-04 04:51:00,28.9,4.1,24.48,ENE,76,2.0,4.0,34,0.00,,OVC,-99.99,VWS V12.07,2013-01-04 12:51:00,
2013-01-04 04:56:00,28.7,4.5,24.48,ESE,117,3.0,4.0,35,0.00,,OVC,-99.99,VWS V12.07,2013-01-04 12:56:00,
2013-01-04 05:08:00,28.3,4.2,24.48,ESE,117,2.0,3.0,35,0.00,,OVC,-99.99,VWS V12.07,2013-01-04 13:08:00,
2013-01-04 05:14:00,28.1,4.0,24.49,ESE,117,2.0,4.0,35,0.00,,OVC,-99.99,VWS V12.07,2013-01-04 13:14:00,
2013-01-04 05:19:00,28.1,3.4,24.49,ESE,107,5.0,6.0,34,0.00,,OVC,-99.99,VWS V12.07,2013-01-04 13:19:00,
2013-01-04 05:24:00,28.2,2.8,24.48,ESE,107,2.0,6.0,33,0.00,,OVC,-99.99,VWS V12.07,2013-01-04 13:24:00,
2013-01-04 05:29:00,28.4,3.6,24.48,ESE,107,1.0,6.0,34,0.00,,OVC,-99.99,VWS V12.07,2013-01-04 13:29:00,
2013-01-04 05:34:00,28.5,3.1,24.49,ESE,107,2.0,3.0,33,0.00,,OVC,-99.99,VWS V12.07,2013-01-04 13:34:00,
2013-01-04 05:40:00,28.4,3.0,24.48,ESE,109,2.0,4.0,33,0.00,,OVC,-99.99,VWS V12.07,2013-01-04 13:40:00,
2013-01-04 05:45:00,28.4,3.0,24.49,East,98,2.0,2.0,33,0.00,,OVC,-99.99,VWS V12.07,2013-01-04 13:45:00,
2013-01-04 05:51:00,28.3,4.2,24.49,East,98,2.0,4.0,35,0.00,,OVC,-99.99,VWS V12.07,2013-01-04 13:51:00,
2013-01-04 05:56:00,28.1,4.0,24.49,ESE,121,1.0,6.0,35,0.00,,OVC,-99.99,VWS V12.07,2013-01-04 13:56:00,
2013-01-04 06:08:00,27.8,2.5,24.49,ESE,110,1.0,4.0,33,0.00,,OVC,-99.99,VWS V12.07,2013-01-04 14:08:00,
2013-01-04 06:14:00,28.0,2.0,24.49,ESE,110,2.0,4.0,32,0.00,,OVC,-99.99,VWS V12.07,2013-01-04 14:14:00,
2013-01-04 06:19:00,28.2,2.8,24.49,ESE,110,2.0,3.0,33,0.00,,OVC,-99.99,VWS V12.07,2013-01-04 14:19:00,
2013-01-04 06:24:00,28.2,2.8,24.49,ESE,110,3.0,5.0,33,0.00,,OVC,-99.99,VWS V12.07,2013-01-04 14:24:00,
2013-01-04 06:29:00,28.2,2.8,24.49,ESE,110,3.0,5.0,33,0.00,,OVC,-99.99,VWS V12.07,2013-01-04 14:29:00,
2013-01-04 06:34:00,28.2,3.5,24.49,ESE,110,0.0,2.0,34,0.00,,OVC,-99.99,VWS V12.07,2013-01-04 14:34:00,
2013-01-04 06:40:00,28.0,3.9,24.49,ESE,110,0.0,2.0,35,0.00,,OVC,-99.99,VWS V12.07,2013-01-04 14:40:00,
2013-01-04 06:45:00,27.7,1.7,24.50,ESE,110,0.0,0.0,32,0.00,,OVC,-99.99,VWS V12.07,2013-01-04 14:45:00,
2013-01-04 06:51:00,27.3,1.4,24.50,ESE,110,0.0,0.0,32,0.00,,OVC,-99.99,VWS V12.07,2013-01-04 14:51:00,
2013-01-04 06:56:00,27.0,0.4,24.50,ESE,110,0.0,3.0,31,0.00,,OVC,-99.99,VWS V12.07,2013-01-04 14:56:00,
2013-01-04 07:09:00,26.9,1.6,24.50,ESE,110,0.0,3.0,33,0.00,,OVC,-99.99,VWS V12.07,2013-01-04 15:09:00,
2013-01-04 07:14:00,26.9,2.9,24.51,ESE,110,3.0,5.0,35,0.00,,OVC,-99.99,VWS V12.07,2013-01-04 15:14:00,
2013-01-04 07:19:00,27.2,3.8,24.51,ESE,110,3.0,6.0,36,0.00,,OVC,-99.99,VWS V12.07,2013-01-04 15:19:00,
2013-01-04 07:24:00,27.3,3.3,24.51,ESE,110,2.0,6.0,35,0.00,,OVC,-99.99,VWS V12.07,2013-01-04 15:24:00,
2013-01-04 07:29:00,27.5,1.5,24.51,ESE,110,3.0,6.0,32,0.00,,OVC,-99.99,VWS V12.07,2013-01-04 15:29:00,
2013-01-04 07:34:00,27.8,2.5,24.51,ENE,67,3.0,5.0,33,0.00,,OVC,-99.99,VWS V12.07,2013-01-04 15:34:00,
2013-01-04 07:40:00,28.1,2.7,24.51,ESE,104,2.0,5.0,33,0.00,,OVC,-99.99,VWS V12.07,2013-01-04 15:40:00,
2013-01-04 07:45:00,28.3,3.5,24.51,ESE,104,1.0,3.0,34,0.00,,OVC,-99.99,VWS V12.07,2013-01-04 15:45:00,
2013-01-04 07:50:00,28.4,3.0,24.51,ESE,104,1.0,4.0,33,0.00,,OVC,-99.99,VWS V12.07,2013-01-04 15:50:00,
2013-01-04 07:56:00,28.4,4.2,24.52,ESE,104,2.0,5.0,35,0.00,,OVC,-99.99,VWS V12.07,2013-01-04 15:56:00,
2013-01-04 08:09:00,29.1,3.6,24.52,ESE,112,0.0,7.0,33,0.00,,OVC,-99.99,VWS V12.07,2013-01-04 16:09:00,
2013-01-04 08:15:00,29.4,3.9,24.52,ESE,112,0.0,0.0,33,0.00,,OVC,-99.99,VWS V12.07,2013-01-04 16:15:00,
2013-01-04 08:21:00,29.7,3.5,24.52,ESE,112,1.0,4.0,32,0.00,,OVC,-99.99,VWS V12.07,2013-01-04 16:21:00,
2013-01-04 08:26:00,30.0,5.7,24.52,ESE,112,1.0,4.0,35,0.00,,OVC,-99.99,VWS V12.07,2013-01-04 16:26:00,
2013-01-04 08:34:00,30.1,7.0,24.53,ESE,112,2.0,3.0,37,0.00,,OVC,-99.99,VWS V12.07,2013-01-04 16:34:00,
2013-01-04 08:40:00,30.1,6.4,24.53,ESE,112,1.0,3.0,36,0.00,,OVC,-99.99,VWS V12.07,2013-01-04 16:40:00,
2013-01-04 08:45:00,30.2,7.1,24.53,ESE,112,1.0,1.0,37,0.00,,OVC,-99.99,VWS V12.07,2013-01-04 16:45:00,
2013-01-04 08:51:00,30.4,6.0,24.53,ESE,112,2.0,2.0,35,0.00,,OVC,-99.99,VWS V12.07,2013-01-04 16:51:00,
2013-01-04 08:56:00,30.7,6.3,24.53,ESE,112,1.0,2.0,35,0.00,,OVC,-99.99,VWS V12.07,2013-01-04 16:56:00,
2013-01-04 09:09:00,32.1,6.9,24.54,ESE,112,1.0,2.0,34,0.00,,OVC,-99.99,VWS V12.07,2013-01-04 17:09:00,
2013-01-04 09:15:00,32.5,6.6,24.54,ESE,112,1.0,1.0,33,0.00,,OVC,-99.99,VWS V12.07,2013-01-04 17:15:00,
2013-01-04 09:20:00,32.9,7.0,24.54,ESE,112,0.0,2.0,33,0.00,,OVC,-99.99,VWS V12.07,2013-01-04 17:20:00,
2013-01-04 09:26:00,33.3,7.3,24.54,ESE,112,0.0,2.0,33,0.00,,OVC,-99.99,VWS V12.07,2013-01-04 17:26:00,
2013-01-04 09:35:00,34.0,7.9,24.54,ESE,112,0.0,0.0,33,0.00,,OVC,-99.99,VWS V12.07,2013-01-04 17:35:00,
2013-01-04 09:41:00,34.5,7.7,24.54,ESE,112,1.0,2.0,32,0.00,,OVC,-99.99,VWS V12.07,2013-01-04 17:41:00,
2013-01-04 09:46:00,34.8,6.5,24.51,ESE,112,2.0,2.0,30,0.00,,OVC,-99.99,VWS V12.07,2013-01-04 17:46:00,
2013-01-04 09:51:00,35.1,6.8,24.54,ESE,112,1.0,2.0,30,0.00,,OVC,-99.99,VWS V12.07,2013-01-04 17:51:00,
2013-01-04 09:56:00,35.3,7.0,24.54,ESE,112,1.0,2.0,30,0.00,,OVC,-99.99,VWS V12.07,2013-01-04 17:56:00,
2013-01-04 10:09:00,36.6,8.8,24.54,ESE,112,1.0,2.0,31,0.00,,OVC,-99.99,VWS V12.07,2013-01-04 18:09:00,
2013-01-04 10:15:00,36.8,10.4,24.55,ESE,112,1.0,2.0,33,0.00,,OVC,-99.99,VWS V12.07,2013-01-04 18:15:00,
2013-01-04 10:20:00,36.7,10.3,24.55,ESE,112,1.0,3.0,33,0.00,,OVC,-99.99,VWS V12.07,2013-01-04 18:20:00,
2013-01-04 10:26:00,36.3,10.0,24.54,ESE,112,1.0,3.0,33,0.00,,OVC,-99.99,VWS V12.07,2013-01-04 18:26:00,
2013-01-04 10:34:00,35.9,9.6,24.54,ESE,112,1.0,1.0,33,0.00,,OVC,-99.99,VWS V12.07,2013-01-04 18:34:00,
2013-01-04 10:40:00,35.9,10.3,24.54,ESE,112,2.0,2.0,34,0.00,,OVC,-99.99,VWS V12.07,2013-01-04 18:40:00,
2013-01-04 10:45:00,35.8,9.5,24.54,ESE,112,2.0,2.0,33,0.00,,OVC,-99.99,VWS V12.07,2013-01-04 18:45:00,
2013-01-04 10:50:00,35.5,9.3,24.54,ESE,112,1.0,3.0,33,0.00,,OVC,-99.99,VWS V12.07,2013-01-04 18:50:00,
2013-01-04 10:56:00,35.2,9.7,24.53,ESE,112,1.0,3.0,34,0.00,,OVC,-99.99,VWS V12.07,2013-01-04 18:56:00,
2013-01-04 11:09:00,35.0,9.5,24.53,ESE,112,2.0,3.0,34,0.00,,OVC,-99.99,VWS V12.07,2013-01-04 19:09:00,
2013-01-04 11:15:00,35.1,9.6,24.53,ESE,112,2.0,2.0,34,0.00,,OVC,-99.99,VWS V12.07,2013-01-04 19:15:00,
2013-01-04 11:21:00,35.1,9.6,24.52,ESE,112,2.0,3.0,34,0.00,,OVC,-99.99,VWS V12.07,2013-01-04 19:21:00,
2013-01-04 11:26:00,35.1,10.2,24.52,ESE,112,2.0,3.0,35,0.00,,OVC,-99.99,VWS V12.07,2013-01-04 19:26:00,
2013-01-04 11:34:00,35.3,9.1,24.52,ESE,112,0.0,2.0,33,0.00,,OVC,-99.99,VWS V12.07,2013-01-04 19:34:00,
2013-01-04 11:40:00,35.5,9.9,24.51,ESE,112,1.0,2.0,34,0.00,,OVC,-99.99,VWS V12.07,2013-01-04 19:40:00,
2013-01-04 11:45:00,35.7,10.1,24.51,ESE,112,0.0,0.0,34,0.00,,OVC,-99.99,VWS V12.07,2013-01-04 19:45:00,
2013-01-04 11:51:00,36.1,10.5,24.51,ESE,112,0.0,3.0,34,0.00,,OVC,-99.99,VWS V12.07,2013-01-04 19:51:00,
2013-01-04 11:56:00,36.8,10.4,24.50,ESE,112,0.0,3.0,33,0.00,,OVC,-99.99,VWS V12.07,2013-01-04 19:56:00,
2013-01-04 12:09:00,39.3,11.2,24.50,ESE,112,1.0,2.0,31,0.00,,OVC,-99.99,VWS V12.07,2013-01-04 20:09:00,
2013-01-04 12:15:00,40.0,12.5,24.50,ESE,112,1.0,2.0,32,0.00,,OVC,-99.99,VWS V12.07,2013-01-04 20:15:00,
2013-01-04 12:21:00,40.3,12.8,24.50,ESE,112,1.0,3.0,32,0.00,,OVC,-99.99,VWS V12.07,2013-01-04 20:21:00,
2013-01-04 12:26:00,40.4,12.2,24.50,ESE,112,2.0,3.0,31,0.00,,OVC,-99.99,VWS V12.07,2013-01-04 20:26:00,
2013-01-04 12:34:00,40.7,13.1,24.50,ESE,112,1.0,2.0,32,0.00,,OVC,-99.99,VWS V12.07,2013-01-04 20:34:00,
2013-01-04 12:40:00,41.0,11.2,24.49,ESE,112,0.0,2.0,29,0.00,,OVC,-99.99,VWS V12.07,2013-01-04 20:40:00,
2013-01-04 12:45:00,41.2,12.1,24.50,ESE,112,1.0,2.0,30,0.00,,OVC,-99.99,VWS V12.07,2013-01-04 20:45:00,
2013-01-04 12:50:00,41.1,12.0,24.50,ESE,112,2.0,3.0,30,0.00,,OVC,-99.99,VWS V12.07,2013-01-04 20:50:00,
2013-01-04 12:55:00,41.0,12.0,24.50,ESE,112,1.0,3.0,30,0.00,,OVC,-99.99,VWS V12.07,2013-01-04 20:55:00,
2013-01-04 13:09:00,40.8,11.0,24.49,ESE,112,1.0,2.0,29,0.00,,OVC,-99.99,VWS V12.07,2013-01-04 21:09:00,
2013-01-04 13:15:00,40.5,10.0,24.49,ESE,112,1.0,1.0,28,0.00,,OVC,-99.99,VWS V12.07,2013-01-04 21:15:00,
2013-01-04 13:21:00,40.4,10.7,24.49,ESE,112,0.0,2.0,29,0.00,,OVC,-99.99,VWS V12.07,2013-01-04 21:21:00,
2013-01-04 13:26:00,40.4,10.7,24.49,ESE,112,0.0,2.0,29,0.00,,OVC,-99.99,VWS V12.07,2013-01-04 21:26:00,
2013-01-04 13:34:00,40.3,11.4,24.49,ESE,112,1.0,3.0,30,0.00,,OVC,-99.99,VWS V12.07,2013-01-04 21:34:00,
2013-01-04 13:40:00,40.2,12.7,24.49,ESE,112,1.0,3.0,32,0.00,,OVC,-99.99,VWS V12.07,2013-01-04 21:40:00,
2013-01-04 13:45:00,40.1,11.9,24.48,ESE,112,1.0,3.0,31,0.00,,OVC,-99.99,VWS V12.07,2013-01-04 21:45:00,
2013-01-04 13:51:00,40.0,10.3,24.49,ESE,112,1.0,3.0,29,0.00,,OVC,-99.99,VWS V12.07,2013-01-04 21:51:00,
2013-01-04 13:56:00,39.9,11.0,24.48,ESE,112,0.0,3.0,30,0.00,,OVC,-99.99,VWS V12.07,2013-01-04 21:56:00,
2013-01-04 14:09:00,39.8,10.1,24.48,ESE,112,0.0,2.0,29,0.00,,OVC,-99.99,VWS V12.07,2013-01-04 22:09:00,
2013-01-04 14:15:00,39.8,10.9,24.48,ESE,112,0.0,0.0,30,0.00,,OVC,-99.99,VWS V12.07,2013-01-04 22:15:00,
2013-01-04 14:21:00,39.7,10.8,24.48,ESE,112,1.0,2.0,30,0.00,,OVC,-99.99,VWS V12.07,2013-01-04 22:21:00,
2013-01-04 14:26:00,39.7,11.6,24.49,ESE,112,0.0,2.0,31,0.00,,OVC,-99.99,VWS V12.07,2013-01-04 22:26:00,
2013-01-04 14:34:00,39.6,10.7,24.49,ESE,112,0.0,1.0,30,0.00,,OVC,-99.99,VWS V12.07,2013-01-04 22:34:00,
2013-01-04 14:40:00,39.6,12.2,24.49,ESE,112,1.0,2.0,32,0.00,,OVC,-99.99,VWS V12.07,2013-01-04 22:40:00,
2013-01-04 14:45:00,39.5,10.6,24.49,ESE,112,0.0,1.0,30,0.00,,OVC,-99.99,VWS V12.07,2013-01-04 22:45:00,
2013-01-04 14:51:00,39.5,10.6,24.49,ESE,112,0.0,2.0,30,0.00,,OVC,-99.99,VWS V12.07,2013-01-04 22:51:00,
2013-01-04 14:56:00,39.4,10.6,24.49,ESE,112,0.0,2.0,30,0.00,,OVC,-99.99,VWS V12.07,2013-01-04 22:56:00,
2013-01-04 15:09:00,39.1,11.0,24.49,ESE,112,0.0,2.0,31,0.00,,OVC,-99.99,VWS V12.07,2013-01-04 23:09:00,
2013-01-04 15:15:00,38.9,10.1,24.49,ESE,112,0.0,2.0,30,0.00,,OVC,-99.99,VWS V12.07,2013-01-04 23:15:00,
2013-01-04 15:21:00,38.8,10.8,24.49,ESE,112,0.0,0.0,31,0.00,,OVC,-99.99,VWS V12.07,2013-01-04 23:21:00,
2013-01-04 15:26:00,38.6,10.6,24.49,ESE,112,0.0,0.0,31,0.00,,OVC,-99.99,VWS V12.07,2013-01-04 23:26:00,
2013-01-04 15:34:00,38.3,11.0,24.49,ESE,112,0.0,0.0,32,0.00,,OVC,-99.99,VWS V12.07,2013-01-04 23:34:00,
2013-01-04 15:40:00,38.1,10.2,24.49,ESE,112,0.0,0.0,31,0.00,,OVC,-99.99,VWS V12.07,2013-01-04 23:40:00,
2013-01-04 15:45:00,37.9,10.7,24.49,ESE,112,0.0,0.0,32,0.00,,OVC,-99.99,VWS V12.07,2013-01-04 23:45:00,
2013-01-04 15:51:00,37.7,9.8,24.49,ESE,112,0.0,0.0,31,0.00,,OVC,-99.99,VWS V12.07,2013-01-04 23:51:00,
2013-01-04 15:56:00,37.4,8.8,24.49,ESE,112,0.0,0.0,30,0.00,,OVC,-99.99,VWS V12.07,2013-01-04 23:56:00,
2013-01-04 16:09:00,36.6,10.2,24.49,ESE,112,0.0,0.0,33,0.00,,OVC,-99.99,VWS V12.07,2013-01-05 00:09:00,
2013-01-04 16:15:00,36.1,9.8,24.49,ESE,112,0.0,0.0,33,0.00,,OVC,-99.99,VWS V12.07,2013-01-05 00:15:00,
2013-01-04 16:21:00,35.7,11.4,24.49,ESE,112,0.0,0.0,36,0.00,,OVC,-99.99,VWS V12.07,2013-01-05 00:21:00,
2013-01-04 16:26:00,35.4,14.1,24.49,ESE,112,0.0,0.0,41,0.00,,OVC,-99.99,VWS V12.07,2013-01-05 00:26:00,
2013-01-04 16:34:00,34.8,17.1,24.49,ESE,112,0.0,0.0,48,0.00,,OVC,-99.99,VWS V12.07,2013-01-05 00:34:00,
2013-01-04 16:40:00,34.5,17.3,24.49,ESE,112,0.0,0.0,49,0.00,,OVC,-99.99,VWS V12.07,2013-01-05 00:40:00,
2013-01-04 16:45:00,34.2,17.5,24.49,ESE,112,0.0,0.0,50,0.00,,OVC,-99.99,VWS V12.07,2013-01-05 00:45:00,
2013-01-04 16:51:00,33.7,15.6,24.49,ESE,112,0.0,0.0,47,0.00,,OVC,-99.99,VWS V12.07,2013-01-05 00:51:00,
2013-01-04 16:56:00,33.4,14.9,24.49,ESE,112,0.0,0.0,46,0.00,,OVC,-99.99,VWS V12.07,2013-01-05 00:56:00,
2013-01-04 17:09:00,32.3,15.8,24.48,ESE,112,0.0,0.0,50,0.00,,OVC,-99.99,VWS V12.07,2013-01-05 01:09:00,
2013-01-04 17:15:00,31.9,16.7,24.48,ESE,112,0.0,0.0,53,0.00,,OVC,-99.99,VWS V12.07,2013-01-05 01:15:00,
2013-01-04 17:21:00,31.7,16.5,24.48,ESE,112,0.0,0.0,53,0.00,,OVC,-99.99,VWS V12.07,2013-01-05 01:21:00,
2013-01-04 17:26:00,31.5,17.2,24.48,ESE,112,0.0,0.0,55,0.00,,OVC,-99.99,VWS V12.07,2013-01-05 01:26:00,
2013-01-04 17:34:00,31.3,16.6,24.48,ESE,112,0.0,0.0,54,0.00,,OVC,-99.99,VWS V12.07,2013-01-05 01:34:00,
2013-01-04 17:40:00,31.2,16.5,24.48,ESE,112,0.0,0.0,54,0.00,,OVC,-99.99,VWS V12.07,2013-01-05 01:40:00,
2013-01-04 17:45:00,31.2,16.1,24.49,ESE,112,0.0,0.0,53,0.00,,OVC,-99.99,VWS V12.07,2013-01-05 01:45:00,
2013-01-04 17:51:00,31.2,16.1,24.49,ESE,112,0.0,0.0,53,0.00,,OVC,-99.99,VWS V12.07,2013-01-05 01:51:00,
2013-01-04 17:56:00,31.2,16.1,24.49,ESE,112,0.0,0.0,53,0.00,,OVC,-99.99,VWS V12.07,2013-01-05 01:56:00,
2013-01-04 18:09:00,31.1,11.8,24.49,ESE,112,0.0,0.0,44,0.00,,OVC,-99.99,VWS V12.07,2013-01-05 02:09:00,
2013-01-04 18:14:00,31.0,12.2,24.49,ESE,112,0.0,0.0,45,0.00,,OVC,-99.99,VWS V12.07,2013-01-05 02:14:00,
2013-01-04 18:19:00,31.0,14.1,24.50,ESE,112,0.0,0.0,49,0.00,,OVC,-99.99,VWS V12.07,2013-01-05 02:19:00,
2013-01-04 18:24:00,31.0,13.6,24.50,ESE,112,0.0,0.0,48,0.00,,OVC,-99.99,VWS V12.07,2013-01-05 02:24:00,
2013-01-04 18:29:00,31.0,13.6,24.50,ESE,112,0.0,0.0,48,0.00,,OVC,-99.99,VWS V12.07,2013-01-05 02:29:00,
2013-01-04 18:34:00,31.0,14.1,24.50,ESE,112,0.0,0.0,49,0.00,,OVC,-99.99,VWS V12.07,2013-01-05 02:34:00,
2013-01-04 18:40:00,31.0,12.2,24.50,ESE,112,0.0,0.0,45,0.00,,OVC,-99.99,VWS V12.07,2013-01-05 02:40:00,
2013-01-04 18:45:00,30.9,10.5,24.50,ESE,112,0.0,0.0,42,0.00,,OVC,-99.99,VWS V12.07,2013-01-05 02:45:00,
2013-01-04 18:51:00,31.0,13.6,24.56,ESE,112,0.0,0.0,48,0.00,,OVC,-99.99,VWS V12.07,2013-01-05 02:51:00,
2013-01-04 18:56:00,31.0,14.6,24.50,ESE,112,0.0,0.0,50,0.00,,OVC,-99.99,VWS V12.07,2013-01-05 02:56:00,
2013-01-04 19:09:00,31.1,15.1,24.50,ESE,112,0.0,0.0,51,0.00,,OVC,-99.99,VWS V12.07,2013-01-05 03:09:00,
2013-01-04 19:15:00,31.1,14.6,24.50,ESE,112,0.0,0.0,50,0.00,,OVC,-99.99,VWS V12.07,2013-01-05 03:15:00,
2013-01-04 19:21:00,31.1,13.7,24.50,ESE,112,0.0,0.0,48,0.00,,OVC,-99.99,VWS V12.07,2013-01-05 03:21:00,
2013-01-04 19:26:00,31.0,13.1,24.50,ESE,112,0.0,0.0,47,0.00,,OVC,-99.99,VWS V12.07,2013-01-05 03:26:00,
2013-01-04 19:35:00,31.0,14.1,24.51,ESE,112,0.0,0.0,49,0.00,,OVC,-99.99,VWS V12.07,2013-01-05 03:35:00,
2013-01-04 19:40:00,30.9,14.5,24.51,ESE,112,0.0,0.0,50,0.00,,OVC,-99.99,VWS V12.07,2013-01-05 03:40:00,
2013-01-04 19:45:00,30.8,14.4,24.51,ESE,112,0.0,0.0,50,0.00,,OVC,-99.99,VWS V12.07,2013-01-05 03:45:00,
2013-01-04 19:51:00,30.8,14.4,24.51,ESE,112,0.0,0.0,50,0.00,,OVC,-99.99,VWS V12.07,2013-01-05 03:51:00,
2013-01-04 19:56:00,30.7,13.4,24.51,ESE,112,0.0,0.0,48,0.00,,OVC,-99.99,VWS V12.07,2013-01-05 03:56:00,
2013-01-04 20:09:00,30.5,13.2,24.50,ESE,112,0.0,0.0,48,0.00,,OVC,-99.99,VWS V12.07,2013-01-05 04:09:00,
2013-01-04 20:15:00,30.5,13.6,24.50,ESE,112,0.0,0.0,49,0.00,,OVC,-99.99,VWS V12.07,2013-01-05 04:15:00,
2013-01-04 20:20:00,30.5,14.5,24.51,ESE,112,0.0,0.0,51,0.00,,OVC,-99.99,VWS V12.07,2013-01-05 04:20:00,
2013-01-04 20:26:00,30.4,14.4,24.51,ESE,112,0.0,0.0,51,0.00,,OVC,-99.99,VWS V12.07,2013-01-05 04:26:00,
2013-01-04 20:35:00,30.4,15.3,24.51,ESE,112,0.0,0.0,53,0.00,,OVC,-99.99,VWS V12.07,2013-01-05 04:35:00,
2013-01-04 20:41:00,30.5,15.9,24.51,ESE,112,0.0,0.0,54,0.00,,OVC,-99.99,VWS V12.07,2013-01-05 04:41:00,
2013-01-04 20:46:00,30.6,16.4,24.51,ESE,112,0.0,0.0,55,0.00,,OVC,-99.99,VWS V12.07,2013-01-05 04:46:00,
2013-01-04 20:51:00,30.7,16.0,24.51,ESE,112,0.0,0.0,54,0.00,,OVC,-99.99,VWS V12.07,2013-01-05 04:51:00,
2013-01-04 20:56:00,30.9,15.8,24.51,ESE,112,0.0,0.0,53,0.00,,OVC,-99.99,VWS V12.07,2013-01-05 04:56:00,
2013-01-04 21:09:00,31.1,12.2,24.52,ESE,112,0.0,0.0,45,0.00,,OVC,-99.99,VWS V12.07,2013-01-05 05:09:00,
2013-01-04 21:10:00,31.1,12.2,24.52,ESE,112,0.0,0.0,45,0.00,,OVC,-99.99,VWS V12.07,2013-01-05 05:10:00,
2013-01-04 21:12:00,31.1,11.8,24.52,ESE,112,0.0,0.0,44,0.00,,OVC,-99.99,VWS V12.07,2013-01-05 05:12:00,
2013-01-04 21:17:00,31.2,11.3,24.52,ESE,112,0.0,0.0,43,0.00,,OVC,-99.99,VWS V12.07,2013-01-05 05:17:00,
2013-01-04 21:22:00,31.2,11.3,24.51,ESE,112,0.0,0.0,43,0.00,,OVC,-99.99,VWS V12.07,2013-01-05 05:22:00,
2013-01-04 21:24:00,31.2,11.3,24.51,ESE,112,0.0,0.0,43,0.00,,OVC,-99.99,VWS V12.07,2013-01-05 05:24:00,
2013-01-04 21:29:00,31.3,12.9,24.52,ESE,112,0.0,0.0,46,0.00,,OVC,-99.99,VWS V12.07,2013-01-05 05:29:00,
2013-01-04 21:34:00,31.4,11.5,24.52,ESE,112,0.0,0.0,43,0.00,,OVC,-99.99,VWS V12.07,2013-01-05 05:34:00,
2013-01-04 21:40:00,31.3,9.2,24.51,ESE,112,0.0,0.0,39,0.00,,OVC,-99.99,VWS V12.07,2013-01-05 05:40:00,
2013-01-04 21:45:00,31.3,8.1,24.51,ESE,112,0.0,0.0,37,0.00,,OVC,-99.99,VWS V12.07,2013-01-05 05:45:00,
2013-01-04 21:51:00,31.3,7.5,24.52,ESE,112,0.0,0.0,36,0.00,,OVC,-99.99,VWS V12.07,2013-01-05 05:51:00,
2013-01-04 21:56:00,31.3,8.1,24.52,ESE,112,0.0,0.0,37,0.00,,OVC,-99.99,VWS V12.07,2013-01-05 05:56:00,
2013-01-04 22:09:00,31.3,6.2,24.52,ESE,112,0.0,0.0,34,0.00,,OVC,-99.99,VWS V12.07,2013-01-05 06:09:00,
2013-01-04 22:14:00,31.3,6.2,24.52,ESE,112,0.0,0.0,34,0.00,,OVC,-99.99,VWS V12.07,2013-01-05 06:14:00,
2013-01-04 22:19:00,31.3,6.8,24.52,ESE,112,0.0,0.0,35,0.00,,OVC,-99.99,VWS V12.07,2013-01-05 06:19:00,
2013-01-04 22:24:00,31.3,6.2,24.52,ESE,112,0.0,0.0,34,0.00,,OVC,-99.99,VWS V12.07,2013-01-05 06:24:00,
2013-01-04 22:29:00,31.3,5.6,24.52,ESE,112,0.0,0.0,33,0.00,,OVC,-99.99,VWS V12.07,2013-01-05 06:29:00,
2013-01-04 22:34:00,31.3,6.2,24.53,ESE,112,0.0,0.0,34,0.00,,OVC,-99.99,VWS V12.07,2013-01-05 06:34:00,
2013-01-04 22:40:00,31.3,8.1,24.52,ESE,112,0.0,0.0,37,0.00,,OVC,-99.99,VWS V12.07,2013-01-05 06:40:00,
2013-01-04 22:45:00,31.3,6.8,24.52,ESE,112,0.0,0.0,35,0.00,,OVC,-99.99,VWS V12.07,2013-01-05 06:45:00,
2013-01-04 22:51:00,31.3,6.8,24.52,ESE,112,0.0,0.0,35,0.00,,OVC,-99.99,VWS V12.07,2013-01-05 06:51:00,
2013-01-04 22:56:00,31.3,6.2,24.52,ESE,112,0.0,0.0,34,0.00,,OVC,-99.99,VWS V12.07,2013-01-05 06:56:00,
2013-01-04 23:09:00,31.4,6.9,24.52,ESE,112,0.0,0.0,35,0.00,,OVC,-99.99,VWS V12.07,2013-01-05 07:09:00,
2013-01-04 23:15:00,31.4,6.3,24.52,ESE,112,0.0,0.0,34,0.00,,OVC,-99.99,VWS V12.07,2013-01-05 07:15:00,
2013-01-04 23:21:00,31.4,7.6,24.52,ESE,112,0.0,0.0,36,0.00,,OVC,-99.99,VWS V12.07,2013-01-05 07:21:00,
2013-01-04 23:26:00,31.3,6.8,24.52,ESE,112,0.0,0.0,35,0.00,,OVC,-99.99,VWS V12.07,2013-01-05 07:26:00,
2013-01-04 23:34:00,31.4,8.7,24.52,ESE,112,0.0,0.0,38,0.00,,OVC,-99.99,VWS V12.07,2013-01-05 07:34:00,
2013-01-04 23:40:00,31.4,8.1,24.52,ESE,112,0.0,0.0,37,0.00,,OVC,-99.99,VWS V12.07,2013-01-05 07:40:00,
2013-01-04 23:45:00,31.4,9.9,24.52,ESE,112,0.0,0.0,40,0.00,,OVC,-99.99,VWS V12.07,2013-01-05 07:45:00,
2013-01-04 23:51:00,31.4,8.7,24.52,ESE,112,0.0,0.0,38,0.00,,OVC,-99.99,VWS V12.07,2013-01-05 07:51:00,
2013-01-04 23:56:00,31.3,7.5,24.52,ESE,112,0.0,0.0,36,0.00,,OVC,-99.99,VWS V12.07,2013-01-05 07:56:00,